Minerva Grace — SVBN7 — position and weather

sailwx.info

Track history (hours):
 
Tides and Currents Weather Stations Pressure Air Temp Water Temp Dewpoint Dewpoint Depression Visibility Wind Speed Wind Dir Waves Ship Positions

Minerva Grace

Last reported at 2016-Aug-24 00:33 UTC. Time now 2016-Aug-24 01:40 UTC.
Position N 31°08' W 014°02'.

Length 183 m; draft 10.1 m.

Type: Ship (hazmat cat A). MMSI: 215925000.

Date/timePositionNaut miles runAvg speedWind from/ knotsBaromVisibWave heightAir tempDewpointWater temp
2016-Aug-24 00:33N 31°08' W 014°02'9 9.3
2016-Aug-23 23:33N 30°59' W 014°04'9 9.2
2016-Aug-23 22:33N 30°50' W 014°07'9 9.2
2016-Aug-23 21:33N 30°41' W 014°09'9 9.4
2016-Aug-23 20:33N 30°32' W 014°12'9 9.3
2016-Aug-23 19:33N 30°23' W 014°14'10 9.5
2016-Aug-23 18:33N 30°13' W 014°16'10 9.7
2016-Aug-23 17:33N 30°04' W 014°19'10 9.7
2016-Aug-23 16:33N 29°54' W 014°21'10 9.8
2016-Aug-23 15:33N 29°45' W 014°24'10 9.8
2016-Aug-23 14:33N 29°35' W 014°27'1110.8
2016-Aug-23 13:33N 29°25' W 014°29'10 9.9
2016-Aug-23 12:33N 29°15' W 014°31'6 5.5
2016-Aug-23 11:33N 29°11' W 014°35'6 5.8
2016-Aug-23 10:33N 29°06' W 014°38'1111.0
2016-Aug-23 09:33N 28°56' W 014°45'7 6.7
2016-Aug-23 08:33N 28°51' W 014°49'6 5.7
2016-Aug-23 07:33N 28°46' W 014°52'6 5.8
2016-Aug-23 06:33N 28°41' W 014°56'6 6.0
2016-Aug-23 05:33N 28°36' W 014°60'6 5.8
2016-Aug-23 04:33N 28°31' W 015°03'6 5.7
2016-Aug-23 03:33N 28°26' W 015°06'6 5.6
2016-Aug-23 02:33N 28°21' W 015°10'6 5.6
2016-Aug-23 01:33N 28°17' W 015°13'5 5.1
2016-Aug-23 00:33N 28°12' W 015°16'5 5.2
2016-Aug-22 23:33N 28°09' W 015°21'4 3.7
2016-Aug-22 22:33N 28°08' W 015°25'0 0.0
2016-Aug-22 21:33N 28°08' W 015°25'0 0.0
2016-Aug-22 20:33N 28°08' W 015°25'0 0.0
2016-Aug-22 19:34N 28°08' W 015°25'0 0.0
2016-Aug-22 18:33N 28°08' W 015°25'0 0.0
2016-Aug-22 17:33N 28°08' W 015°25'0 0.0
2016-Aug-22 16:33N 28°08' W 015°25'0 0.0
2016-Aug-22 15:33N 28°08' W 015°25'0 0.0
2016-Aug-22 14:33N 28°08' W 015°25'0 0.0
2016-Aug-22 13:34N 28°08' W 015°25'0 0.0
2016-Aug-22 12:33N 28°08' W 015°25'0 0.0
2016-Aug-22 11:33N 28°08' W 015°25'0 0.0
2016-Aug-22 10:33N 28°08' W 015°25'0 0.0
2016-Aug-22 09:33N 28°08' W 015°25'0 0.0
2016-Aug-22 08:33N 28°08' W 015°25'0 0.0
2016-Aug-22 07:33N 28°08' W 015°25'0 0.0
2016-Aug-22 06:33N 28°08' W 015°25'0 0.0
2016-Aug-22 05:33N 28°08' W 015°25'0 0.0
2016-Aug-22 04:33N 28°08' W 015°25'0 0.0
2016-Aug-22 03:33N 28°08' W 015°25'0 0.0
2016-Aug-22 02:33N 28°08' W 015°25'0 0.0
2016-Aug-22 01:33N 28°08' W 015°25'0 0.0
2016-Aug-22 00:33N 28°08' W 015°25'0 0.0
2016-Aug-21 23:33N 28°08' W 015°25'0 0.0
2016-Aug-21 22:33N 28°08' W 015°25'0 0.0
2016-Aug-21 21:33N 28°08' W 015°25'0 0.0
2016-Aug-21 20:33N 28°08' W 015°25'0 0.0
2016-Aug-21 19:33N 28°08' W 015°25'0 0.0
2016-Aug-21 18:33N 28°08' W 015°25'0 0.0
2016-Aug-21 17:33N 28°08' W 015°25'0 0.0
2016-Aug-21 16:33N 28°08' W 015°25'0 0.0
2016-Aug-21 15:33N 28°08' W 015°25'0 0.0
2016-Aug-21 14:33N 28°08' W 015°25'0 0.0
2016-Aug-21 13:33N 28°08' W 015°25'0 0.0
2016-Aug-21 12:33N 28°08' W 015°25'0 0.0
2016-Aug-21 11:33N 28°08' W 015°25'0 0.0
2016-Aug-21 10:33N 28°08' W 015°25'0 0.0
2016-Aug-21 09:33N 28°08' W 015°25'0 0.0
2016-Aug-21 08:33N 28°08' W 015°25'0 0.0
2016-Aug-21 07:33N 28°08' W 015°25'0 0.0
2016-Aug-21 06:33N 28°08' W 015°25'0 0.0
2016-Aug-21 05:33N 28°08' W 015°25'0 0.0
2016-Aug-21 04:33N 28°08' W 015°25'0 0.0
2016-Aug-21 03:33N 28°08' W 015°25'0 0.0
2016-Aug-21 02:33N 28°08' W 015°25'0 0.0
2016-Aug-21 01:34N 28°08' W 015°25'0 0.0
2016-Aug-21 00:33N 28°08' W 015°25'0 0.0
2016-Aug-20 23:33N 28°08' W 015°25'0 0.0
2016-Aug-20 22:33N 28°08' W 015°25'0 0.0
2016-Aug-20 21:33N 28°08' W 015°25'0 0.0
2016-Aug-20 20:33N 28°08' W 015°25'0 0.0
2016-Aug-20 19:33N 28°08' W 015°25'0 0.0
2016-Aug-20 18:33N 28°08' W 015°25'0 0.0
2016-Aug-20 17:33N 28°08' W 015°25'0 0.0
2016-Aug-20 16:33N 28°08' W 015°25'0 0.0
2016-Aug-20 15:33N 28°08' W 015°25'0 0.0
2016-Aug-20 14:33N 28°08' W 015°25'0 0.0
2016-Aug-20 13:33N 28°08' W 015°25'0 0.0
2016-Aug-20 12:33N 28°08' W 015°25'0 0.0
2016-Aug-20 11:33N 28°08' W 015°25'0 0.0
2016-Aug-20 10:33N 28°08' W 015°25'0 0.0
2016-Aug-20 09:33N 28°08' W 015°25'0 0.0
2016-Aug-20 08:33N 28°08' W 015°25'1 0.5
2016-Aug-20 07:34N 28°08' W 015°25'1 1.0
2016-Aug-20 06:33N 28°08' W 015°24'0 0.1
2016-Aug-20 05:33N 28°08' W 015°24'0 0.0
2016-Aug-20 04:33N 28°08' W 015°24'0 0.2
2016-Aug-20 03:33N 28°09' W 015°23'3 3.2
2016-Aug-20 02:34N 28°07' W 015°21'9 9.2
2016-Aug-20 01:33N 28°15' W 015°16'1211.7
2016-Aug-20 00:33N 28°26' W 015°13'1212.0
2016-Aug-19 23:33N 28°38' W 015°10'1211.8
2016-Aug-19 22:33N 28°49' W 015°06'1211.7
2016-Aug-19 21:33N 29°01' W 015°03'1612.0
2016-Aug-19 20:14N 29°16' W 014°59'812.1
2016-Aug-19 19:33N 29°24' W 014°57'1212.1
2016-Aug-19 18:33N 29°36' W 014°53'1312.6
2016-Aug-19 17:34N 29°48' W 014°50'1613.4
2016-Aug-19 16:21N 30°04' W 014°45'1113.4
2016-Aug-19 15:32N 30°14' W 014°42'1313.1
2016-Aug-19 14:33N 30°27' W 014°38'1713.1
2016-Aug-19 13:13N 30°44' W 014°33'1313.1
2016-Aug-19 12:13N 30°57' W 014°30'1113.3
2016-Aug-19 11:24N 31°07' W 014°27'1313.5
2016-Aug-19 10:27N 31°19' W 014°23'1213.5
2016-Aug-19 09:33N 31°31' W 014°20'1613.5
2016-Aug-19 08:23N 31°47' W 014°15'2612.5
2016-Aug-19 06:18N 32°12' W 014°07'2311.6
2016-Aug-19 04:16N 32°35' W 014°01'2411.6
2016-Aug-19 02:13N 32°58' W 013°54'811.7
2016-Aug-19 01:34N 33°05' W 013°52'1311.6
2016-Aug-19 00:24N 33°18' W 013°48'12611.6
2016-Aug-18 13:34N 35°20' W 013°10'3611.7
2016-Aug-18 10:28N 35°55' W 012°59'2812.0
2016-Aug-18 08:08N 36°22' W 012°51'2113.4
2016-Aug-18 06:33N 36°43' W 012°45'3313.2
2016-Aug-18 04:04N 37°15' W 012°35'913.5
2016-Aug-18 03:22N 37°24' W 012°32'1113.3
2016-Aug-18 02:33N 37°34' W 012°28'1512.9
2016-Aug-18 01:23N 37°49' W 012°24'1512.9
2016-Aug-18 00:14N 38°04' W 012°19'1113.0
2016-Aug-17 23:21N 38°14' W 012°16'1113.0
2016-Aug-17 22:30N 38°25' W 012°12'1313.0
2016-Aug-17 21:29N 38°38' W 012°08'1212.8
2016-Aug-17 20:33N 38°49' W 012°04'1512.0
2016-Aug-17 19:20N 39°04' W 011°60'2011.3
2016-Aug-17 17:33N 39°23' W 011°54'1111.0
2016-Aug-17 16:33N 39°34' W 011°50'57012.1
2016-Aug-15 17:19N 48°14' W 006°26'2112.1
2016-Aug-15 15:33N 48°32' W 006°09'1111.3
2016-Aug-15 14:33N 48°42' W 005°59'1111.1
2016-Aug-15 13:33N 48°51' W 005°51'1010.4
2016-Aug-15 12:33N 48°57' W 005°38'1110.7
2016-Aug-15 11:33N 49°03' W 005°24'1111.1
2016-Aug-15 10:33N 49°09' W 005°10'1211.8
2016-Aug-15 09:33N 49°15' W 004°54'1212.4
2016-Aug-15 08:33N 49°21' W 004°38'1212.4
2016-Aug-15 07:33N 49°27' W 004°21'1414.1
2016-Aug-15 06:33N 49°34' W 004°03'2713.3
2016-Aug-15 04:33N 49°48' W 003°27'1212.3
2016-Aug-15 03:33N 49°54' W 003°11'1312.7
2016-Aug-15 02:33N 49°59' W 002°53'1313.3
2016-Aug-15 01:33N 50°04' W 002°33'1514.3
2016-Aug-15 00:30N 50°08' W 002°10'1415.2
2016-Aug-14 23:33N 50°11' W 001°49'1515.5
2016-Aug-14 22:34N 50°16' W 001°25'1515.2
2016-Aug-14 21:33N 50°19' W 001°02'1413.9
2016-Aug-14 20:33N 50°23' W 000°41'1313.0
2016-Aug-14 19:34N 50°26' W 000°22'1212.3
2016-Aug-14 18:33N 50°29' W 000°03'1212.0
2016-Aug-14 17:34N 50°33' E 000°15'1212.2
2016-Aug-14 16:34N 50°36' E 000°34'2813.6
2016-Aug-14 14:31N 50°53' E 001°08'1414.3
2016-Aug-14 13:33N 51°03' E 001°24'1313.0
2016-Aug-14 12:34N 51°11' E 001°40'1312.6
2016-Aug-14 11:34N 51°21' E 001°51'1212.3
2016-Aug-14 10:33N 51°31' E 002°02'1212.3
2016-Aug-14 09:33N 51°40' E 002°15'1211.6
2016-Aug-14 08:29N 51°50' E 002°28'4711.9
2016-Aug-14 04:32N 52°34' E 002°57'1412.3
2016-Aug-14 03:24N 52°46' E 003°08'  
Track history (hours):
 
Tides and Currents Weather Stations Pressure Air Temp Water Temp Dewpoint Dewpoint Depression Visibility Wind Speed Wind Dir Waves Ship Positions

Minerva Grace

Last reported at 2016-Aug-24 00:33 UTC. Time now 2016-Aug-24 01:40 UTC.
Position N 31°08' W 014°02'.

Length 183 m; draft 10.1 m.

Type: Ship (hazmat cat A). MMSI: 215925000.

Date/timePositionNaut miles runAvg speedWind from/ knotsBaromVisibWave heightAir tempDewpointWater temp
2016-Aug-24 00:33N 31°08' W 014°02'9 9.3
2016-Aug-23 23:33N 30°59' W 014°04'9 9.2
2016-Aug-23 22:33N 30°50' W 014°07'9 9.2
2016-Aug-23 21:33N 30°41' W 014°09'9 9.4
2016-Aug-23 20:33N 30°32' W 014°12'9 9.3
2016-Aug-23 19:33N 30°23' W 014°14'10 9.5
2016-Aug-23 18:33N 30°13' W 014°16'10 9.7
2016-Aug-23 17:33N 30°04' W 014°19'10 9.7
2016-Aug-23 16:33N 29°54' W 014°21'10 9.8
2016-Aug-23 15:33N 29°45' W 014°24'10 9.8
2016-Aug-23 14:33N 29°35' W 014°27'1110.8
2016-Aug-23 13:33N 29°25' W 014°29'10 9.9
2016-Aug-23 12:33N 29°15' W 014°31'6 5.5
2016-Aug-23 11:33N 29°11' W 014°35'6 5.8
2016-Aug-23 10:33N 29°06' W 014°38'1111.0
2016-Aug-23 09:33N 28°56' W 014°45'7 6.7
2016-Aug-23 08:33N 28°51' W 014°49'6 5.7
2016-Aug-23 07:33N 28°46' W 014°52'6 5.8
2016-Aug-23 06:33N 28°41' W 014°56'6 6.0
2016-Aug-23 05:33N 28°36' W 014°60'6 5.8
2016-Aug-23 04:33N 28°31' W 015°03'6 5.7
2016-Aug-23 03:33N 28°26' W 015°06'6 5.6
2016-Aug-23 02:33N 28°21' W 015°10'6 5.6
2016-Aug-23 01:33N 28°17' W 015°13'5 5.1
2016-Aug-23 00:33N 28°12' W 015°16'5 5.2
2016-Aug-22 23:33N 28°09' W 015°21'4 3.7
2016-Aug-22 22:33N 28°08' W 015°25'0 0.0
2016-Aug-22 21:33N 28°08' W 015°25'0 0.0
2016-Aug-22 20:33N 28°08' W 015°25'0 0.0
2016-Aug-22 19:34N 28°08' W 015°25'0 0.0
2016-Aug-22 18:33N 28°08' W 015°25'0 0.0
2016-Aug-22 17:33N 28°08' W 015°25'0 0.0
2016-Aug-22 16:33N 28°08' W 015°25'0 0.0
2016-Aug-22 15:33N 28°08' W 015°25'0 0.0
2016-Aug-22 14:33N 28°08' W 015°25'0 0.0
2016-Aug-22 13:34N 28°08' W 015°25'0 0.0
2016-Aug-22 12:33N 28°08' W 015°25'0 0.0
2016-Aug-22 11:33N 28°08' W 015°25'0 0.0
2016-Aug-22 10:33N 28°08' W 015°25'0 0.0
2016-Aug-22 09:33N 28°08' W 015°25'0 0.0
2016-Aug-22 08:33N 28°08' W 015°25'0 0.0
2016-Aug-22 07:33N 28°08' W 015°25'0 0.0
2016-Aug-22 06:33N 28°08' W 015°25'0 0.0
2016-Aug-22 05:33N 28°08' W 015°25'0 0.0
2016-Aug-22 04:33N 28°08' W 015°25'0 0.0
2016-Aug-22 03:33N 28°08' W 015°25'0 0.0
2016-Aug-22 02:33N 28°08' W 015°25'0 0.0
2016-Aug-22 01:33N 28°08' W 015°25'0 0.0
2016-Aug-22 00:33N 28°08' W 015°25'0 0.0
2016-Aug-21 23:33N 28°08' W 015°25'0 0.0
2016-Aug-21 22:33N 28°08' W 015°25'0 0.0
2016-Aug-21 21:33N 28°08' W 015°25'0 0.0
2016-Aug-21 20:33N 28°08' W 015°25'0 0.0
2016-Aug-21 19:33N 28°08' W 015°25'0 0.0
2016-Aug-21 18:33N 28°08' W 015°25'0 0.0
2016-Aug-21 17:33N 28°08' W 015°25'0 0.0
2016-Aug-21 16:33N 28°08' W 015°25'0 0.0
2016-Aug-21 15:33N 28°08' W 015°25'0 0.0
2016-Aug-21 14:33N 28°08' W 015°25'0 0.0
2016-Aug-21 13:33N 28°08' W 015°25'0 0.0
2016-Aug-21 12:33N 28°08' W 015°25'0 0.0
2016-Aug-21 11:33N 28°08' W 015°25'0 0.0
2016-Aug-21 10:33N 28°08' W 015°25'0 0.0
2016-Aug-21 09:33N 28°08' W 015°25'0 0.0
2016-Aug-21 08:33N 28°08' W 015°25'0 0.0
2016-Aug-21 07:33N 28°08' W 015°25'0 0.0
2016-Aug-21 06:33N 28°08' W 015°25'0 0.0
2016-Aug-21 05:33N 28°08' W 015°25'0 0.0
2016-Aug-21 04:33N 28°08' W 015°25'0 0.0
2016-Aug-21 03:33N 28°08' W 015°25'0 0.0
2016-Aug-21 02:33N 28°08' W 015°25'0 0.0
2016-Aug-21 01:34N 28°08' W 015°25'0 0.0
2016-Aug-21 00:33N 28°08' W 015°25'0 0.0
2016-Aug-20 23:33N 28°08' W 015°25'0 0.0
2016-Aug-20 22:33N 28°08' W 015°25'0 0.0
2016-Aug-20 21:33N 28°08' W 015°25'0 0.0
2016-Aug-20 20:33N 28°08' W 015°25'0 0.0
2016-Aug-20 19:33N 28°08' W 015°25'0 0.0
2016-Aug-20 18:33N 28°08' W 015°25'0 0.0
2016-Aug-20 17:33N 28°08' W 015°25'0 0.0
2016-Aug-20 16:33N 28°08' W 015°25'0 0.0
2016-Aug-20 15:33N 28°08' W 015°25'0 0.0
2016-Aug-20 14:33N 28°08' W 015°25'0 0.0
2016-Aug-20 13:33N 28°08' W 015°25'0 0.0
2016-Aug-20 12:33N 28°08' W 015°25'0 0.0
2016-Aug-20 11:33N 28°08' W 015°25'0 0.0
2016-Aug-20 10:33N 28°08' W 015°25'0 0.0
2016-Aug-20 09:33N 28°08' W 015°25'0 0.0
2016-Aug-20 08:33N 28°08' W 015°25'1 0.5
2016-Aug-20 07:34N 28°08' W 015°25'1 1.0
2016-Aug-20 06:33N 28°08' W 015°24'0 0.1
2016-Aug-20 05:33N 28°08' W 015°24'0 0.0
2016-Aug-20 04:33N 28°08' W 015°24'0 0.2
2016-Aug-20 03:33N 28°09' W 015°23'3 3.2
2016-Aug-20 02:34N 28°07' W 015°21'9 9.2
2016-Aug-20 01:33N 28°15' W 015°16'1211.7
2016-Aug-20 00:33N 28°26' W 015°13'1212.0
2016-Aug-19 23:33N 28°38' W 015°10'1211.8
2016-Aug-19 22:33N 28°49' W 015°06'1211.7
2016-Aug-19 21:33N 29°01' W 015°03'1612.0
2016-Aug-19 20:14N 29°16' W 014°59'812.1
2016-Aug-19 19:33N 29°24' W 014°57'1212.1
2016-Aug-19 18:33N 29°36' W 014°53'1312.6
2016-Aug-19 17:34N 29°48' W 014°50'1613.4
2016-Aug-19 16:21N 30°04' W 014°45'1113.4
2016-Aug-19 15:32N 30°14' W 014°42'1313.1
2016-Aug-19 14:33N 30°27' W 014°38'1713.1
2016-Aug-19 13:13N 30°44' W 014°33'1313.1
2016-Aug-19 12:13N 30°57' W 014°30'1113.3
2016-Aug-19 11:24N 31°07' W 014°27'1313.5
2016-Aug-19 10:27N 31°19' W 014°23'1213.5
2016-Aug-19 09:33N 31°31' W 014°20'1613.5
2016-Aug-19 08:23N 31°47' W 014°15'2612.5
2016-Aug-19 06:18N 32°12' W 014°07'2311.6
2016-Aug-19 04:16N 32°35' W 014°01'2411.6
2016-Aug-19 02:13N 32°58' W 013°54'811.7
2016-Aug-19 01:34N 33°05' W 013°52'1311.6
2016-Aug-19 00:24N 33°18' W 013°48'12611.6
2016-Aug-18 13:34N 35°20' W 013°10'3611.7
2016-Aug-18 10:28N 35°55' W 012°59'2812.0
2016-Aug-18 08:08N 36°22' W 012°51'2113.4
2016-Aug-18 06:33N 36°43' W 012°45'3313.2
2016-Aug-18 04:04N 37°15' W 012°35'913.5
2016-Aug-18 03:22N 37°24' W 012°32'1113.3
2016-Aug-18 02:33N 37°34' W 012°28'1512.9
2016-Aug-18 01:23N 37°49' W 012°24'1512.9
2016-Aug-18 00:14N 38°04' W 012°19'1113.0
2016-Aug-17 23:21N 38°14' W 012°16'1113.0
2016-Aug-17 22:30N 38°25' W 012°12'1313.0
2016-Aug-17 21:29N 38°38' W 012°08'1212.8
2016-Aug-17 20:33N 38°49' W 012°04'1512.0
2016-Aug-17 19:20N 39°04' W 011°60'2011.3
2016-Aug-17 17:33N 39°23' W 011°54'1111.0
2016-Aug-17 16:33N 39°34' W 011°50'57012.1
2016-Aug-15 17:19N 48°14' W 006°26'2112.1
2016-Aug-15 15:33N 48°32' W 006°09'1111.3
2016-Aug-15 14:33N 48°42' W 005°59'1111.1
2016-Aug-15 13:33N 48°51' W 005°51'1010.4
2016-Aug-15 12:33N 48°57' W 005°38'1110.7
2016-Aug-15 11:33N 49°03' W 005°24'1111.1
2016-Aug-15 10:33N 49°09' W 005°10'1211.8
2016-Aug-15 09:33N 49°15' W 004°54'1212.4
2016-Aug-15 08:33N 49°21' W 004°38'1212.4
2016-Aug-15 07:33N 49°27' W 004°21'1414.1
2016-Aug-15 06:33N 49°34' W 004°03'2713.3
2016-Aug-15 04:33N 49°48' W 003°27'1212.3
2016-Aug-15 03:33N 49°54' W 003°11'1312.7
2016-Aug-15 02:33N 49°59' W 002°53'1313.3
2016-Aug-15 01:33N 50°04' W 002°33'1514.3
2016-Aug-15 00:30N 50°08' W 002°10'1415.2
2016-Aug-14 23:33N 50°11' W 001°49'1515.5
2016-Aug-14 22:34N 50°16' W 001°25'1515.2
2016-Aug-14 21:33N 50°19' W 001°02'1413.9
2016-Aug-14 20:33N 50°23' W 000°41'1313.0
2016-Aug-14 19:34N 50°26' W 000°22'1212.3
2016-Aug-14 18:33N 50°29' W 000°03'1212.0
2016-Aug-14 17:34N 50°33' E 000°15'1212.2
2016-Aug-14 16:34N 50°36' E 000°34'2813.6
2016-Aug-14 14:31N 50°53' E 001°08'1414.3
2016-Aug-14 13:33N 51°03' E 001°24'1313.0
2016-Aug-14 12:34N 51°11' E 001°40'1312.6
2016-Aug-14 11:34N 51°21' E 001°51'1212.3
2016-Aug-14 10:33N 51°31' E 002°02'1212.3
2016-Aug-14 09:33N 51°40' E 002°15'1211.6
2016-Aug-14 08:29N 51°50' E 002°28'4711.9
2016-Aug-14 04:32N 52°34' E 002°57'1412.3
2016-Aug-14 03:24N 52°46' E 003°08'  

Dump ship's entire track history